Latest Coastal Weather Observations for Portland Airport

IDS60701

Issued at 6:41 am CDT Monday 5 December 2016 (issued every 10 minutes, with the page automatically refreshed every 10 minutes)

About coastal observations | Map of coastal stations | Coastal observations for SA | Marine services | Other Formats
Station Details ID: 090171 Name: CASHMORE AIRPORT Lat: -38.31 Lon: 141.47 Height: 80.9 m
Data from the previous 72 hours. | See also: Recent months at Portland Airport
Date/Time
CDT
Temp
°C
Wind Pressure Rain since
9am
mm
Weather Cloud Vis
km
Sea
Height
m
Swell
Dir  Spd
kts
Gust
kts
hPa Trend Height
m
Period
s
Dir
05/06:30am 13.4 W 13 18 1010.6 - 0.6 - Cloudy 10 - - - -
05/06:00am 13.0 WSW 13 18 1010.0 - 0.6 - Cloudy 10 - - - -
05/05:30am 13.1 WSW 15 21 1009.5 - 0.6 - Cloudy 10 - - - -
05/05:00am 13.4 WSW 14 20 1009.1 - 0.6 - Partly cloudy 10 - - - -
05/04:30am 13.6 W 12 16 1008.7 - 0.6 - Partly cloudy 10 - - - -
05/04:00am 13.0 W 13 20 1008.6 - 0.6 - Partly cloudy 10 - - - -
05/03:30am 13.5 W 14 20 1008.1 - 0.6 - Cloudy 10 - - - -
05/03:00am 13.6 W 17 21 1007.4 - 0.6 - Cloudy 10 - - - -
05/02:30am 13.7 W 15 21 1007.2 - 0.6 - Cloudy 10 - - - -
05/02:00am 13.6 W 14 18 1006.7 - 0.6 - Partly cloudy 10 - - - -
05/01:30am 14.1 W 15 24 1006.5 - 0.6 - Partly cloudy 10 - - - -
05/01:29am 14.2 W 15 24 1006.5 - 0.6 - Partly cloudy 10 - - - -
05/01:00am 15.1 W 18 26 1005.9 - 0.6 - Partly cloudy 10 - - - -
05/12:30am 15.4 W 17 23 1005.6 - 0.6 - Partly cloudy 10 - - - -
05/12:00am 16.1 W 19 24 1005.1 - 0.6 - Partly cloudy 9 - - - -
 
Date/Time
CDT
Temp
°C
Wind Pressure Rain since
9am
mm
Weather Cloud Vis
km
Sea
Height
m
Swell
Dir  Spd
kts
Gust
kts
hPa Trend Height
m
Period
s
Dir
04/11:55pm 16.2 W 19 25 1005.0 - 0.6 - Partly cloudy 9 - - - -
04/11:36pm 16.6 W 17 24 1004.6 - 0.6 - Partly cloudy 10 - - - -
04/11:30pm 16.7 W 18 25 1004.3 - 0.6 Rain Cloudy 10 - - - -
04/11:26pm 16.8 W 19 27 1004.2 - 0.6 - Partly cloudy 10 - - - -
04/11:08pm 17.6 W 20 29 1003.9 - 0.4 - Partly cloudy 6 - - - -
04/11:03pm 18.0 WNW 21 32 1003.9 - 0.2 - Partly cloudy 10 - - - -
04/11:00pm 18.3 WNW 22 32 1003.8 - 0.2 - Partly cloudy 10 - - - -
04/10:49pm 19.4 WNW 19 29 1003.4 - 0.2 - Partly cloudy 10 - - - -
04/10:37pm 21.1 NW 17 27 1003.2 - 0.2 - Partly cloudy 10 - - - -
04/10:30pm 22.1 NNW 15 22 1002.5 - 0.2 - Cloudy 10 - - - -
04/10:00pm 21.7 NNW 15 22 1002.0 - 0.2 - Partly cloudy 10 - - - -
04/09:30pm 21.7 N 14 20 1001.9 - 0.2 - Partly cloudy 10 - - - -
04/09:00pm 21.9 N 14 20 1001.5 - 0.2 - Partly cloudy 10 - - - -
04/08:30pm 21.8 N 14 19 1001.2 - 0.2 - Cloudy 10 - - - -
04/08:00pm 22.1 N 13 20 1001.4 - 0.2 - Partly cloudy 10 - - - -
04/07:32pm 22.6 N 16 26 1001.6 - 0.2 - - 10 - - - -
04/07:30pm 22.6 N 17 26 1001.5 - 0.2 - - 10 - - - -
04/07:23pm 22.8 N 16 26 1001.4 - 0.2 - - 10 - - - -
04/07:00pm 22.7 N 14 21 1001.6 - 0.2 - - 10 - - - -
04/06:30pm 22.7 N 15 20 1001.3 - 0.2 - - 10 - - - -
04/06:00pm 21.9 N 15 21 1001.4 - 0.2 - - 10 - - - -
04/05:48pm 21.9 N 15 28 1001.4 - 0.2 - - 10 - - - -
04/05:30pm 21.0 N 14 20 1001.8 - 0.2 Recent precip. Cloudy 10 - - - -
04/05:00pm 20.2 N 14 19 1002.6 - 0.0 - Partly cloudy 10 - - - -
04/04:30pm 20.2 N 15 21 1003.6 - 0.0 - Partly cloudy 10 - - - -
04/04:00pm 22.0 NNW 21 31 1004.7 - 0.0 - Partly cloudy 10 - - - -
04/03:34pm 25.1 NW 18 32 1004.6 - 0.0 - Partly cloudy 10 - - - -
04/03:30pm 23.6 WNW 18 26 1004.5 - 0.0 - Partly cloudy 10 - - - -
04/03:00pm 25.5 NW 14 19 1004.2 - 0.0 - Partly cloudy 10 - - - -
04/02:30pm 23.6 WNW 19 30 1004.7 - 0.0 - Cloudy 10 - - - -
04/02:22pm 24.6 WNW 16 30 1004.6 - 0.0 - Partly cloudy 10 - - - -
04/02:00pm 28.1 NW 18 25 1004.6 - 0.0 - Partly cloudy 10 - - - -
04/01:44pm 27.8 NW 13 27 1004.7 - 0.0 - Partly cloudy 10 - - - -
04/01:42pm 27.8 NNW 12 24 1004.8 - 0.0 - Partly cloudy 10 - - - -
04/01:30pm 25.8 N 8 12 1005.1 - 0.0 - Partly cloudy 10 - - - -
04/01:00pm 24.7 NNE 7 9 1005.5 - 0.0 - Partly cloudy 10 - - - -
04/12:30pm 22.8 NE 6 9 1005.7 - 0.0 - Cloudy 10 - - - -
04/12:00pm 21.9 NE 5 7 1006.1 - 0.0 - Partly cloudy 10 - - - -
04/11:30am 22.9 ENE 5 7 1006.2 - 0.0 - Cloudy 10 - - - -
04/11:00am 22.3 NE 4 6 1006.8 - 0.0 - Partly cloudy 10 - - - -
04/10:30am 22.1 NNE 5 7 1007.1 - 0.0 - Partly cloudy 10 - - - -
04/10:00am 21.1 NNE 5 7 1007.1 - 0.0 - - 10 - - - -
04/09:30am 19.3 NNE 6 8 1007.5 - 0.0 - - 10 - - - -
04/09:00am 16.8 NE 5 6 1007.8 - 0.0 - - 10 - - - -
04/08:30am 15.2 NNE 4 6 1008.1 - 0.0 - - 10 - - - -
04/08:00am 12.6 NNE 4 5 1008.1 - 0.0 - - 10 - - - -
04/07:30am 11.9 NNE 6 8 1008.4 - 0.0 - - 10 - - - -
04/07:00am 10.5 NNE 3 6 1008.3 - 0.0 - - 10 - - - -
04/06:30am 9.6 N 5 7 1008.6 - 0.0 - - 10 - - - -
04/06:00am 9.3 NNE 5 6 1008.6 - 0.0 - - 10 - - - -
04/05:30am 9.3 NNE 5 6 1008.8 - 0.0 - - 10 - - - -
04/05:00am 10.3 NE 7 8 1008.6 - 0.0 - - 10 - - - -
04/04:30am 10.9 NE 6 9 1008.9 - 0.0 - - 10 - - - -
04/04:00am 11.2 ENE 5 8 1009.2 - 0.0 - - 10 - - - -
04/03:30am 11.0 ENE 5 8 1009.4 - 0.0 - - 10 - - - -
04/03:00am 10.9 ENE 5 7 1010.0 - 0.0 - - 10 - - - -
04/02:30am 10.9 ENE 4 6 1010.0 - 0.0 - - 10 - - - -
04/02:00am 10.5 ESE 4 5 1010.1 - 0.0 - - 10 - - - -
04/01:30am 10.9 CALM 0 0 1010.6 - 0.0 - - 10 - - - -
04/01:00am 10.5 ESE 3 5 1011.5 - 0.0 - - 10 - - - -
04/12:30am 10.7 E 4 5 1011.9 - 0.0 - - 10 - - - -
04/12:00am 11.2 E 4 5 1012.1 - 0.0 - - 10 - - - -
 
Date/Time
CDT
Temp
°C
Wind Pressure Rain since
9am
mm
Weather Cloud Vis
km
Sea
Height
m
Swell
Dir  Spd
kts
Gust
kts
hPa Trend Height
m
Period
s
Dir
03/11:30pm 11.8 ESE 5 7 1012.5 - 0.0 - - 10 - - - -
03/11:00pm 12.0 ESE 6 8 1013.0 - 0.0 - - 10 - - - -
03/10:30pm 12.0 ESE 5 8 1013.4 - 0.0 - - 10 - - - -
03/10:00pm 11.7 ESE 5 6 1013.9 - 0.0 - - 10 - - - -
03/09:30pm 11.7 ESE 5 7 1013.9 - 0.0 - - 10 - - - -
03/09:00pm 12.2 ESE 5 6 1014.0 - 0.0 - - 10 - - - -
03/08:30pm 12.7 ESE 6 8 1013.8 - 0.0 - - 10 - - - -
03/08:00pm 13.7 SE 7 11 1014.0 - 0.0 - - 10 - - - -
03/07:30pm 14.7 SE 9 13 1013.8 - 0.0 - - 10 - - - -
03/07:00pm 15.0 ESE 10 14 1013.8 - 0.0 - - 10 - - - -
03/06:30pm 16.0 SE 9 12 1014.0 - 0.0 - - 10 - - - -
03/06:00pm 16.5 ESE 8 13 1014.0 - 0.0 - - 10 - - - -
03/05:30pm 16.7 SE 8 13 1013.9 - 0.0 - - 10 - - - -
03/05:00pm 17.0 ESE 8 12 1013.9 - 0.0 - - 10 - - - -
03/04:30pm 17.7 SE 8 11 1014.2 - 0.0 - - 10 - - - -
03/04:00pm 17.9 SSE 8 13 1014.2 - 0.0 - - 10 - - - -
03/03:30pm 17.1 SSE 9 13 1014.3 - 0.0 - - 10 - - - -
03/03:00pm 18.2 ESE 8 12 1014.4 - 0.0 - - 10 - - - -
03/02:30pm 18.7 SE 8 13 1014.4 - 0.0 - - 10 - - - -
03/02:00pm 18.3 ESE 7 12 1014.6 - 0.0 - - 10 - - - -
03/01:30pm 18.1 ESE 6 9 1014.8 - 0.0 - - 10 - - - -
03/01:00pm 17.9 ESE 7 11 1015.0 - 0.0 - - 10 - - - -
03/12:30pm 17.2 ESE 5 10 1015.3 - 0.0 - - 10 - - - -
03/12:00pm 17.2 E 5 9 1015.6 - 0.0 - - 10 - - - -
03/11:30am 16.8 E 5 9 1015.9 - 0.0 - - 10 - - - -
03/11:00am 16.4 ESE 6 11 1016.0 - 0.0 - - 10 - - - -
03/10:30am 15.6 ENE 5 8 1016.0 - 0.0 - - 10 - - - -
03/10:00am 15.6 E 5 8 1016.4 - 0.0 - - 10 - - - -
03/09:30am 15.4 E 6 10 1016.5 - 0.0 - - 10 - - - -
03/09:00am 14.8 ENE 5 9 1016.3 - 0.0 - - 10 - - - -
03/08:30am 14.3 E 5 7 1016.3 - 0.0 - - 10 - - - -
03/08:00am 14.0 ENE 3 6 1016.2 - 0.0 - - 10 - - - -
03/07:30am 13.3 E 1 4 1016.1 - 0.0 - - 10 - - - -
03/07:00am 9.4 CALM 0 0 1015.7 - 0.0 - - 10 - - - -
03/06:30am 6.4 CALM 0 0 1015.6 - 0.0 - - 10 - - - -
03/06:00am 5.1 CALM 0 0 1015.3 - 0.0 - - 10 - - - -
03/05:30am 4.6 NNW 1 3 1015.2 - 0.0 - - 10 - - - -
03/05:00am 4.0 CALM 0 0 1014.9 - 0.0 - - 10 - - - -
03/04:30am 4.3 NNW 1 3 1014.8 - 0.0 - - 10 - - - -
03/04:00am 5.2 N 1 5 1014.8 - 0.0 - - 10 - - - -
03/03:30am 5.1 CALM 0 0 1015.0 - 0.0 - - 10 - - - -
03/03:00am 5.2 NW 1 4 1015.0 - 0.0 - - 10 - - - -
03/02:30am 5.9 NW 4 6 1015.1 - 0.0 - - 10 - - - -
03/02:00am 5.6 NNW 3 4 1015.6 - 0.0 - - 10 - - - -
03/01:30am 6.4 W 3 4 1015.9 - 0.0 - - 10 - - - -
03/01:00am 6.6 CALM 0 0 1016.1 - 0.0 - - 10 - - - -
03/12:30am 7.8 CALM 0 0 1016.3 - 0.0 - - 10 - - - -
03/12:00am 8.5 W 2 4 1016.6 - 0.0 - - 10 - - - -
 
Date/Time
CDT
Temp
°C
Wind Pressure Rain since
9am
mm
Weather Cloud Vis
km
Sea
Height
m
Swell
Dir  Spd
kts
Gust
kts
hPa Trend Height
m
Period
s
Dir
02/11:30pm 9.4 SW 7 9 1016.5 - 0.0 - - 10 - - - -
02/11:00pm 8.4 SW 4 6 1016.6 - 0.0 - - 10 - - - -
02/10:30pm 9.2 SW 5 8 1016.7 - 0.0 - - 10 - - - -
02/10:00pm 9.2 SW 6 8 1016.7 - 0.0 - - 10 - - - -
02/09:30pm 9.3 W 4 5 1016.6 - 0.0 - - 10 - - - -
02/09:00pm 10.5 WSW 5 7 1016.4 - 0.0 - Partly cloudy 10 - - - -
02/08:30pm 11.3 W 6 7 1016.2 - 0.0 - Mostly clear 10 - - - -
02/08:00pm 12.6 W 7 10 1016.0 - 0.0 - Partly cloudy 10 - - - -
02/07:30pm 13.3 W 9 13 1015.7 - 0.0 - Partly cloudy 10 - - - -
02/07:00pm 13.7 W 9 13 1015.4 - 0.0 - - 10 - - - -
02/06:30pm 14.6 WNW 9 13 1015.3 - 0.0 - Partly cloudy 10 - - - -
02/06:00pm 14.8 WNW 9 13 1015.3 - 0.0 - Partly cloudy 10 - - - -
02/05:30pm 14.7 WNW 10 14 1015.2 - 0.0 - Mostly clear 10 - - - -
02/05:00pm 15.1 WSW 9 15 1015.1 - 0.0 - Partly cloudy 10 - - - -
02/04:30pm 15.0 W 10 16 1015.1 - 0.0 - Partly cloudy 10 - - - -
02/04:00pm 16.0 W 11 17 1014.9 - 0.0 - Partly cloudy 10 - - - -
02/03:30pm 15.9 W 10 17 1014.9 - 0.0 - Partly cloudy 10 - - - -
02/03:00pm 16.0 WSW 11 16 1014.8 - 0.0 - Partly cloudy 10 - - - -
02/02:30pm 15.6 WSW 10 16 1014.7 - 0.0 - Partly cloudy 10 - - - -
02/02:00pm 15.6 WSW 10 16 1014.8 - 0.0 - Partly cloudy 10 - - - -
02/01:30pm 15.2 WSW 10 17 1014.7 - 0.0 - Partly cloudy 10 - - - -
02/01:00pm 15.4 WSW 10 16 1014.5 - 0.0 - Partly cloudy 10 - - - -
02/12:30pm 15.2 WSW 12 17 1014.5 - 0.0 - Partly cloudy 10 - - - -
02/12:00pm 14.8 WSW 11 18 1014.4 - 0.0 - Partly cloudy 10 - - - -
02/11:30am 15.1 WSW 12 17 1014.2 - 0.0 - Mostly clear 10 - - - -
02/11:00am 14.2 WSW 13 18 1013.8 - 0.0 - Partly cloudy 10 - - - -
02/10:30am 14.7 WSW 11 19 1013.7 - 0.0 - Partly cloudy 10 - - - -
02/10:00am 15.1 WSW 12 18 1013.4 - 0.0 - Partly cloudy 10 - - - -
02/09:30am 14.8 WSW 12 17 1013.1 - 0.0 - Partly cloudy 10 - - - -
02/09:00am 14.6 WSW 13 18 1012.7 - 0.0 - Partly cloudy 10 - - - -
02/08:30am 13.6 SW 9 15 1012.3 - 0.6 Recent precip. Cloudy 10 - - - -
02/08:00am 13.3 SW 10 15 1011.9 - 0.6 - Partly cloudy 10 - - - -
02/07:30am 13.4 SW 8 11 1011.4 - 0.4 - Partly cloudy 10 - - - -
02/07:00am 12.9 WSW 7 10 1011.0 - 0.4 - Partly cloudy 10 - - - -
02/06:30am 12.6 WSW 6 7 1010.4 - 0.4 - Partly cloudy 10 - - - -

Other Formats:

Comma delimited format used in spreadsheet applications
http://www.bom.gov.au/fwo/IDS60701/IDS60701.94828.axf

JavaScript Object Notation format (JSON) in row-major order
http://www.bom.gov.au/fwo/IDS60701/IDS60701.94828.json